Detall de PIREP

Printer-friendly versionPDF version

[2013/05/15 07:44:00]
Flight IATA:CT3101
Pilot Number:011
Company ICAO:CAT
Aircraft Type:B738/F
PAX:160
Departing Airport: LEBL
Destination Airport: LIEA
Alternate Airport:LIEO
Online: VATSIM
Route:VERSO UM24 LAPIT UN725 ORKUM UM603 ELSAG
Flight Level:F300
No Slew and time accel
No pause
Crash detect
Detect pilot in Cockpit between each 30 and 45 minutes
07:44 Zero fuel Weight: 135990 Lbs, Fuel Weight: 15533 Lbs
07:44 VATSIM:LEBL 150730Z 08003KT 040V110 9999 FEW022 BKN040 18/14 Q1002 NOSIG
07:44 VATSIM:LIEA 150720Z VRB02KT CAVOK 18/13 Q1005
07:54 Parking Brakes off
08:04 Take-off
08:04 Take off Weight: 150644 Lbs
08:04 Wind: 082º @ 003 Knots Heading: 065º
08:04 POS N41º 17´ 17´´ E002º 05´ 29´´
08:04 Flaps:5 at 173 Knots
08:04 Gear Up: 177 Knots
08:05 Flaps:4 at 227 Knots
08:05 Flaps:3 at 233 Knots
08:05 Flaps:2 at 235 Knots
08:05 Flaps:1 at 235 Knots
08:05 Flaps:0 at 236 Knots
08:19 Wind:118º@004 Knots Heading: 118º Ground Speed: 436 Knots Altitude 28267 ft
08:20 TOC
08:20 Fuel Weight: 11570 Lb
08:31 TOD
08:31 Fuel Weight: 10492 Lb
08:57 Flaps:1 at 229 Knots
08:57 Flaps:2 at 223 Knots
08:57 Flaps:3 at 216 Knots
08:58 Flaps:4 at 183 Knots
08:59 Flaps:5 at 180 Knots
09:00 Flaps:6 at 171 Knots
09:00 Gear Down: 159 Knots
09:00 Flaps:7 at 153 Knots
09:01 Flaps:8 at 149 Knots
09:05 TouchDown:Rate -270 ft/min Speed: 122 Knots
09:05 VATSIM:LIEA 150820Z 00000KT 9999 SCT030 20/12 Q1005
09:05 Land
09:05 Wind:100º@000 Knots
09:05 Heading: 205º
09:05 Flight Duration: 01:01
09:05 Landing Weight: 144728 Lbs
09:05 POS N40º 37´ 55´´ E008º 17´ 26´´
09:09 Parking brakes on
09:09 Block to Block Duration: 01:15
09:09 Final Fuel: 8350 Lbls
09:09 Spent Fuel: 7182 Lbls
09:09 Flight Length: 175 NM
09:09 TOD Land Length: 07 NM

Exportar CSV

Powered by Drupal - Modified by Danger4k